Ana Sayfa
METAR-TAF:

METAR-TAF

Havaalanları :

Kasane, Botsvana

Enlem: 17-49S, Boylam: 025-09E, yükseklik: 968 m

Güncel hava durumu gözlemi

Rapor saat 11:00 UTC de 52 dakika önce yapıldı.
Rüzgar güneybatıdan 5 kt, güney ve batı arasında değişken
Sıcaklık 30°C
Nem 49%
Basınç 1014 hPa
Görüş mesafesi 10 km veya daha fazla
3000 ft yükseklikte parçalı bulutlu

METAR: FBKE 221100Z 22005KT 180V280 9999 SCT030 30/18 Q1014

Saat: 13:52 (11:52 UTC)

Tahmin

Rapor saat 09:00 UTC de 26 saat ve 52 dakika önce yapıldı.
Ayın 21'si saat 12 UTC'den ayın 21'si saat 21 UTC'ye kadar geçerli Tahmin
Rüzgar doğudan 10 kt
Görüş mesafesi 10 km veya daha fazla
2500 ft yükseklikte parçalı bulutlu
3500 ft yükseklikte az bulutlu, Kümülonimbus.
7000 ft yükseklikte parçalı bulutlu
Olasılık 30% :
Geçici
ayın 21'si saat 18 UTC'den ayın 21'si saat 21 UTC'ye kadar
gök gürültülü fırtına, yağmur

TAF: FBKE 210900Z 2112/2121 10010KT 9999 SCT025 FEW035CB SCT070 PROB30 TEMPO 2118/2121 TSRA

4.000'den fazla havaalanı için hava durumu gözlemleri ve tahminleri (METAR ve TAF raporları).

Kullanılabilir istasyonlar harita üzerinde sarı ve kırmızı noktalarla gösterilir.

İstasyonun adını görmek için fareyi noktanın üzerinde gezdirin.

Sonrasında hava gözlem ve tahminlerini görmek için tıklayın.

Haritayı değiştirmek için: yaklaştırmak için siyah artı işaretli yeşil düğmeye ve uzaklaştırmak için de eksi işaretli düğmeye hızla tıklayın; bitişik haritalar için yeşil okları kullanın.


METAR-TAF: